sensor_id;sensor_type;location;lat;lon;timestamp;temperature;humidity
70839;DHT22;58464;52.298;4.852;2022-12-18T00:01:05;-1.96;90.71
70839;DHT22;58464;52.298;4.852;2022-12-18T00:03:37;-2.04;90.70
70839;DHT22;58464;52.298;4.852;2022-12-18T00:06:02;-2.15;91.04
70839;DHT22;58464;52.298;4.852;2022-12-18T00:08:28;-2.21;91.40
70839;DHT22;58464;52.298;4.852;2022-12-18T00:10:54;-2.17;91.86
70839;DHT22;58464;52.298;4.852;2022-12-18T00:13:20;-2.13;91.34
70839;DHT22;58464;52.298;4.852;2022-12-18T00:15:45;-2.06;91.40
70839;DHT22;58464;52.298;4.852;2022-12-18T00:18:10;-2.06;91.35
70839;DHT22;58464;52.298;4.852;2022-12-18T00:20:39;-1.96;91.34
70839;DHT22;58464;52.298;4.852;2022-12-18T00:23:06;-1.98;91.23
70839;DHT22;58464;52.298;4.852;2022-12-18T00:25:33;-1.98;91.13
70839;DHT22;58464;52.298;4.852;2022-12-18T00:28:00;-2.03;90.81
70839;DHT22;58464;52.298;4.852;2022-12-18T00:30:27;-2.13;91.28
70839;DHT22;58464;52.298;4.852;2022-12-18T00:32:53;-2.15;91.52
70839;DHT22;58464;52.298;4.852;2022-12-18T00:35:19;-2.08;91.73
70839;DHT22;58464;52.298;4.852;2022-12-18T00:37:45;-2.11;91.42
70839;DHT22;58464;52.298;4.852;2022-12-18T00:40:10;-2.11;91.23
70839;DHT22;58464;52.298;4.852;2022-12-18T00:42:36;-2.04;91.17
70839;DHT22;58464;52.298;4.852;2022-12-18T00:45:20;-2.01;90.85
70839;DHT22;58464;52.298;4.852;2022-12-18T00:47:46;-1.96;91.12
70839;DHT22;58464;52.298;4.852;2022-12-18T00:50:11;-1.97;90.58
70839;DHT22;58464;52.298;4.852;2022-12-18T00:52:37;-2.07;90.81
70839;DHT22;58464;52.298;4.852;2022-12-18T00:55:02;-2.10;90.97
70839;DHT22;58464;52.298;4.852;2022-12-18T00:57:28;-2.10;90.93
70839;DHT22;58464;52.298;4.852;2022-12-18T00:59:53;-2.07;90.95
70839;DHT22;58464;52.298;4.852;2022-12-18T01:02:18;-2.11;90.89
70839;DHT22;58464;52.298;4.852;2022-12-18T01:04:44;-2.15;90.76
70839;DHT22;58464;52.298;4.852;2022-12-18T01:07:09;-2.15;91.04
70839;DHT22;58464;52.298;4.852;2022-12-18T01:09:35;-2.21;90.98
70839;DHT22;58464;52.298;4.852;2022-12-18T01:12:00;-2.20;91.39
70839;DHT22;58464;52.298;4.852;2022-12-18T01:14:26;-2.21;90.61
70839;DHT22;58464;52.298;4.852;2022-12-18T01:16:51;-2.25;90.98
70839;DHT22;58464;52.298;4.852;2022-12-18T01:19:16;-2.25;91.33
70839;DHT22;58464;52.298;4.852;2022-12-18T01:21:42;-2.33;91.27
70839;DHT22;58464;52.298;4.852;2022-12-18T01:24:10;-2.30;91.62
70839;DHT22;58464;52.298;4.852;2022-12-18T01:26:36;-2.40;91.39
70839;DHT22;58464;52.298;4.852;2022-12-18T01:29:02;-2.38;91.63
70839;DHT22;58464;52.298;4.852;2022-12-18T01:31:30;-2.35;91.88
70839;DHT22;58464;52.298;4.852;2022-12-18T01:33:56;-2.33;91.19
70839;DHT22;58464;52.298;4.852;2022-12-18T01:36:30;-2.33;91.40
70839;DHT22;58464;52.298;4.852;2022-12-18T01:38:56;-2.33;91.55
70839;DHT22;58464;52.298;4.852;2022-12-18T01:41:24;-2.34;91.58
70839;DHT22;58464;52.298;4.852;2022-12-18T01:43:58;-2.37;91.40
70839;DHT22;58464;52.298;4.852;2022-12-18T01:46:24;-2.38;91.06
70839;DHT22;58464;52.298;4.852;2022-12-18T01:48:59;-2.49;91.21
70839;DHT22;58464;52.298;4.852;2022-12-18T01:51:29;-2.55;91.45
70839;DHT22;58464;52.298;4.852;2022-12-18T01:53:56;-2.42;91.71
70839;DHT22;58464;52.298;4.852;2022-12-18T01:56:22;-2.55;91.65
70839;DHT22;58464;52.298;4.852;2022-12-18T01:59:02;-2.56;91.77
70839;DHT22;58464;52.298;4.852;2022-12-18T02:01:30;-2.44;91.92
70839;DHT22;58464;52.298;4.852;2022-12-18T02:03:56;-2.47;91.98
70839;DHT22;58464;52.298;4.852;2022-12-18T02:06:40;-2.52;91.70
70839;DHT22;58464;52.298;4.852;2022-12-18T02:09:18;-2.52;91.64
70839;DHT22;58464;52.298;4.852;2022-12-18T02:14:40;-2.49;92.04
70839;DHT22;58464;52.298;4.852;2022-12-18T02:28:11;-2.44;91.72
70839;DHT22;58464;52.298;4.852;2022-12-18T02:30:39;-2.54;91.48
70839;DHT22;58464;52.298;4.852;2022-12-18T02:33:07;-2.70;91.35
70839;DHT22;58464;52.298;4.852;2022-12-18T02:35:35;-2.73;91.80
70839;DHT22;58464;52.298;4.852;2022-12-18T02:38:03;-2.83;91.69
70839;DHT22;58464;52.298;4.852;2022-12-18T02:40:30;-2.83;91.91
70839;DHT22;58464;52.298;4.852;2022-12-18T02:42:55;-2.75;92.24
70839;DHT22;58464;52.298;4.852;2022-12-18T02:45:27;-2.70;92.10
70839;DHT22;58464;52.298;4.852;2022-12-18T02:47:52;-2.66;91.86
70839;DHT22;58464;52.298;4.852;2022-12-18T02:50:34;-2.75;91.83
70839;DHT22;58464;52.298;4.852;2022-12-18T02:56:20;-2.73;92.32
70839;DHT22;58464;52.298;4.852;2022-12-18T03:01:56;-2.66;92.43
70839;DHT22;58464;52.298;4.852;2022-12-18T03:06:54;-2.56;92.40
70839;DHT22;58464;52.298;4.852;2022-12-18T03:09:30;-2.61;92.14
70839;DHT22;58464;52.298;4.852;2022-12-18T03:14:56;-2.56;92.28
70839;DHT22;58464;52.298;4.852;2022-12-18T03:17:26;-2.59;92.18
70839;DHT22;58464;52.298;4.852;2022-12-18T03:19:53;-2.52;92.48
70839;DHT22;58464;52.298;4.852;2022-12-18T03:22:23;-2.54;92.15
70839;DHT22;58464;52.298;4.852;2022-12-18T03:24:51;-2.54;92.37
70839;DHT22;58464;52.298;4.852;2022-12-18T03:27:18;-2.56;92.14
70839;DHT22;58464;52.298;4.852;2022-12-18T03:29:49;-2.49;91.90
70839;DHT22;58464;52.298;4.852;2022-12-18T03:32:23;-2.49;92.16
70839;DHT22;58464;52.298;4.852;2022-12-18T03:34:51;-2.65;91.83
70839;DHT22;58464;52.298;4.852;2022-12-18T03:37:18;-2.68;91.84
70839;DHT22;58464;52.298;4.852;2022-12-18T03:39:43;-2.70;91.87
70839;DHT22;58464;52.298;4.852;2022-12-18T03:42:27;-2.72;91.94
70839;DHT22;58464;52.298;4.852;2022-12-18T03:47:36;-2.64;92.00
70839;DHT22;58464;52.298;4.852;2022-12-18T03:53:03;-2.75;91.31
70839;DHT22;58464;52.298;4.852;2022-12-18T03:55:33;-2.69;91.37
70839;DHT22;58464;52.298;4.852;2022-12-18T03:58:01;-2.70;91.23
70839;DHT22;58464;52.298;4.852;2022-12-18T04:00:28;-2.79;91.18
70839;DHT22;58464;52.298;4.852;2022-12-18T04:02:56;-2.93;90.98
70839;DHT22;58464;52.298;4.852;2022-12-18T04:05:25;-3.00;91.48
70839;DHT22;58464;52.298;4.852;2022-12-18T04:07:53;-3.06;91.44
70839;DHT22;58464;52.298;4.852;2022-12-18T04:10:19;-3.01;91.90
70839;DHT22;58464;52.298;4.852;2022-12-18T04:12:45;-3.08;91.87
70839;DHT22;58464;52.298;4.852;2022-12-18T04:15:12;-3.17;91.76
70839;DHT22;58464;52.298;4.852;2022-12-18T04:17:39;-3.16;92.29
70839;DHT22;58464;52.298;4.852;2022-12-18T04:20:08;-3.11;91.77
70839;DHT22;58464;52.298;4.852;2022-12-18T04:22:34;-3.14;91.80
70839;DHT22;58464;52.298;4.852;2022-12-18T04:25:00;-3.27;91.78
70839;DHT22;58464;52.298;4.852;2022-12-18T04:27:26;-3.31;91.90
70839;DHT22;58464;52.298;4.852;2022-12-18T04:29:51;-3.40;91.81
70839;DHT22;58464;52.298;4.852;2022-12-18T04:32:16;-3.36;92.16
70839;DHT22;58464;52.298;4.852;2022-12-18T04:34:42;-3.48;92.23
70839;DHT22;58464;52.298;4.852;2022-12-18T04:37:07;-3.44;92.27
70839;DHT22;58464;52.298;4.852;2022-12-18T04:39:33;-3.48;92.24
70839;DHT22;58464;52.298;4.852;2022-12-18T04:41:58;-3.36;92.35
70839;DHT22;58464;52.298;4.852;2022-12-18T04:44:24;-3.31;92.01
70839;DHT22;58464;52.298;4.852;2022-12-18T04:46:49;-3.45;92.21
70839;DHT22;58464;52.298;4.852;2022-12-18T04:49:15;-3.54;92.27
70839;DHT22;58464;52.298;4.852;2022-12-18T04:51:40;-3.59;92.23
70839;DHT22;58464;52.298;4.852;2022-12-18T04:54:06;-3.64;92.60
70839;DHT22;58464;52.298;4.852;2022-12-18T04:56:31;-3.55;92.79
70839;DHT22;58464;52.298;4.852;2022-12-18T04:58:58;-3.55;92.66
70839;DHT22;58464;52.298;4.852;2022-12-18T05:01:24;-3.40;93.08
70839;DHT22;58464;52.298;4.852;2022-12-18T05:03:51;-3.45;92.66
70839;DHT22;58464;52.298;4.852;2022-12-18T05:06:16;-3.55;92.18
70839;DHT22;58464;52.298;4.852;2022-12-18T05:08:42;-3.50;92.59
70839;DHT22;58464;52.298;4.852;2022-12-18T05:11:09;-3.58;92.34
70839;DHT22;58464;52.298;4.852;2022-12-18T05:13:35;-3.54;92.42
70839;DHT22;58464;52.298;4.852;2022-12-18T05:16:01;-3.67;92.23
70839;DHT22;58464;52.298;4.852;2022-12-18T05:18:28;-3.57;92.63
70839;DHT22;58464;52.298;4.852;2022-12-18T05:20:54;-3.51;92.15
70839;DHT22;58464;52.298;4.852;2022-12-18T05:23:21;-3.47;92.17
70839;DHT22;58464;52.298;4.852;2022-12-18T05:25:54;-3.51;91.84
70839;DHT22;58464;52.298;4.852;2022-12-18T05:28:21;-3.45;91.95
70839;DHT22;58464;52.298;4.852;2022-12-18T05:30:51;-3.37;91.50
70839;DHT22;58464;52.298;4.852;2022-12-18T05:33:17;-3.45;91.52
70839;DHT22;58464;52.298;4.852;2022-12-18T05:35:44;-3.45;91.33
70839;DHT22;58464;52.298;4.852;2022-12-18T05:38:09;-3.44;91.18
70839;DHT22;58464;52.298;4.852;2022-12-18T05:40:35;-3.52;90.83
70839;DHT22;58464;52.298;4.852;2022-12-18T05:43:01;-3.62;91.02
70839;DHT22;58464;52.298;4.852;2022-12-18T05:45:29;-3.61;91.53
70839;DHT22;58464;52.298;4.852;2022-12-18T05:47:55;-3.59;91.28
70839;DHT22;58464;52.298;4.852;2022-12-18T05:50:20;-3.51;91.56
70839;DHT22;58464;52.298;4.852;2022-12-18T05:52:46;-3.59;91.10
70839;DHT22;58464;52.298;4.852;2022-12-18T05:55:11;-3.44;91.66
70839;DHT22;58464;52.298;4.852;2022-12-18T05:57:37;-3.48;90.92
70839;DHT22;58464;52.298;4.852;2022-12-18T06:00:03;-3.55;90.46
70839;DHT22;58464;52.298;4.852;2022-12-18T06:02:29;-3.58;90.48
70839;DHT22;58464;52.298;4.852;2022-12-18T06:04:55;-3.64;90.37
70839;DHT22;58464;52.298;4.852;2022-12-18T06:07:21;-3.65;90.28
70839;DHT22;58464;52.298;4.852;2022-12-18T06:09:46;-3.61;90.45
70839;DHT22;58464;52.298;4.852;2022-12-18T06:12:11;-3.71;90.04
70839;DHT22;58464;52.298;4.852;2022-12-18T06:14:37;-3.75;89.81
70839;DHT22;58464;52.298;4.852;2022-12-18T06:17:03;-3.67;90.18
70839;DHT22;58464;52.298;4.852;2022-12-18T06:19:28;-3.71;89.57
70839;DHT22;58464;52.298;4.852;2022-12-18T06:21:53;-3.71;89.61
70839;DHT22;58464;52.298;4.852;2022-12-18T06:24:19;-3.62;89.75
70839;DHT22;58464;52.298;4.852;2022-12-18T06:26:45;-3.75;89.19
70839;DHT22;58464;52.298;4.852;2022-12-18T06:29:10;-3.71;89.33
70839;DHT22;58464;52.298;4.852;2022-12-18T06:31:35;-3.72;89.33
70839;DHT22;58464;52.298;4.852;2022-12-18T06:34:04;-3.78;89.12
70839;DHT22;58464;52.298;4.852;2022-12-18T06:36:30;-3.71;89.22
70839;DHT22;58464;52.298;4.852;2022-12-18T06:38:56;-3.78;88.98
70839;DHT22;58464;52.298;4.852;2022-12-18T06:41:22;-3.69;88.99
70839;DHT22;58464;52.298;4.852;2022-12-18T06:43:48;-3.72;88.82
70839;DHT22;58464;52.298;4.852;2022-12-18T06:46:13;-3.69;88.05
70839;DHT22;58464;52.298;4.852;2022-12-18T06:48:40;-3.71;88.14
70839;DHT22;58464;52.298;4.852;2022-12-18T06:51:06;-3.71;87.99
70839;DHT22;58464;52.298;4.852;2022-12-18T06:53:32;-3.74;87.67
70839;DHT22;58464;52.298;4.852;2022-12-18T06:56:05;-3.74;87.35
70839;DHT22;58464;52.298;4.852;2022-12-18T06:58:31;-3.75;87.08
70839;DHT22;58464;52.298;4.852;2022-12-18T07:01:01;-3.72;86.79
70839;DHT22;58464;52.298;4.852;2022-12-18T07:03:27;-3.62;86.88
70839;DHT22;58464;52.298;4.852;2022-12-18T07:05:52;-3.64;86.52
70839;DHT22;58464;52.298;4.852;2022-12-18T07:08:18;-3.71;86.16
70839;DHT22;58464;52.298;4.852;2022-12-18T07:10:43;-3.67;86.40
70839;DHT22;58464;52.298;4.852;2022-12-18T07:13:09;-3.59;86.45
70839;DHT22;58464;52.298;4.852;2022-12-18T07:15:35;-3.55;85.73
70839;DHT22;58464;52.298;4.852;2022-12-18T07:18:00;-3.44;85.42
70839;DHT22;58464;52.298;4.852;2022-12-18T07:20:25;-3.57;84.63
70839;DHT22;58464;52.298;4.852;2022-12-18T07:22:51;-3.61;84.32
70839;DHT22;58464;52.298;4.852;2022-12-18T07:25:16;-3.67;84.35
70839;DHT22;58464;52.298;4.852;2022-12-18T07:27:42;-3.68;84.56
70839;DHT22;58464;52.298;4.852;2022-12-18T07:30:08;-3.58;84.51
70839;DHT22;58464;52.298;4.852;2022-12-18T07:32:33;-3.55;84.50
70839;DHT22;58464;52.298;4.852;2022-12-18T07:34:59;-3.54;84.45
70839;DHT22;58464;52.298;4.852;2022-12-18T07:37:25;-3.62;84.04
70839;DHT22;58464;52.298;4.852;2022-12-18T07:39:50;-3.57;84.62
70839;DHT22;58464;52.298;4.852;2022-12-18T07:42:15;-3.58;84.38
70839;DHT22;58464;52.298;4.852;2022-12-18T07:44:57;-3.57;84.21
70839;DHT22;58464;52.298;4.852;2022-12-18T07:47:22;-3.57;84.43
70839;DHT22;58464;52.298;4.852;2022-12-18T07:49:47;-3.54;84.45
70839;DHT22;58464;52.298;4.852;2022-12-18T07:52:13;-3.44;84.11
70839;DHT22;58464;52.298;4.852;2022-12-18T07:54:39;-3.52;84.07
70839;DHT22;58464;52.298;4.852;2022-12-18T07:57:05;-3.33;84.00
70839;DHT22;58464;52.298;4.852;2022-12-18T07:59:31;-3.38;83.50
70839;DHT22;58464;52.298;4.852;2022-12-18T08:01:56;-3.37;83.53
70839;DHT22;58464;52.298;4.852;2022-12-18T08:04:21;-3.38;83.54
70839;DHT22;58464;52.298;4.852;2022-12-18T08:06:47;-3.24;83.58
70839;DHT22;58464;52.298;4.852;2022-12-18T08:09:12;-3.14;83.22
70839;DHT22;58464;52.298;4.852;2022-12-18T08:11:38;-3.06;82.81
70839;DHT22;58464;52.298;4.852;2022-12-18T08:14:03;-3.10;82.51
70839;DHT22;58464;52.298;4.852;2022-12-18T08:16:28;-2.97;82.39
70839;DHT22;58464;52.298;4.852;2022-12-18T08:18:55;-3.01;81.97
70839;DHT22;58464;52.298;4.852;2022-12-18T08:21:28;-2.95;82.20
70839;DHT22;58464;52.298;4.852;2022-12-18T08:23:56;-2.89;81.75
70839;DHT22;58464;52.298;4.852;2022-12-18T08:26:23;-2.92;81.56
70839;DHT22;58464;52.298;4.852;2022-12-18T08:28:50;-2.90;81.83
70839;DHT22;58464;52.298;4.852;2022-12-18T08:31:18;-2.85;81.93
70839;DHT22;58464;52.298;4.852;2022-12-18T08:33:44;-3.00;81.81
70839;DHT22;58464;52.298;4.852;2022-12-18T08:36:09;-2.90;81.72
70839;DHT22;58464;52.298;4.852;2022-12-18T08:38:35;-2.92;81.84
70839;DHT22;58464;52.298;4.852;2022-12-18T08:41:02;-2.85;81.81
70839;DHT22;58464;52.298;4.852;2022-12-18T08:43:28;-2.86;81.23
70839;DHT22;58464;52.298;4.852;2022-12-18T08:46:13;-2.76;81.20
70839;DHT22;58464;52.298;4.852;2022-12-18T08:48:38;-2.69;81.28
70839;DHT22;58464;52.298;4.852;2022-12-18T08:51:04;-2.66;81.19
70839;DHT22;58464;52.298;4.852;2022-12-18T08:53:30;-2.66;80.97
70839;DHT22;58464;52.298;4.852;2022-12-18T08:55:56;-2.65;80.86
70839;DHT22;58464;52.298;4.852;2022-12-18T08:58:21;-2.51;81.07
70839;DHT22;58464;52.298;4.852;2022-12-18T09:00:47;-2.44;80.61
70839;DHT22;58464;52.298;4.852;2022-12-18T09:03:14;-2.41;80.29
70839;DHT22;58464;52.298;4.852;2022-12-18T09:05:39;-2.40;80.20
70839;DHT22;58464;52.298;4.852;2022-12-18T09:08:05;-2.28;79.75
70839;DHT22;58464;52.298;4.852;2022-12-18T09:10:31;-2.23;79.95
70839;DHT22;58464;52.298;4.852;2022-12-18T09:12:57;-2.20;79.83
70839;DHT22;58464;52.298;4.852;2022-12-18T09:15:22;-2.27;79.73
70839;DHT22;58464;52.298;4.852;2022-12-18T09:17:49;-2.21;79.62
70839;DHT22;58464;52.298;4.852;2022-12-18T09:20:16;-2.24;79.63
70839;DHT22;58464;52.298;4.852;2022-12-18T09:22:42;-2.25;79.55
70839;DHT22;58464;52.298;4.852;2022-12-18T09:25:08;-2.24;79.33
70839;DHT22;58464;52.298;4.852;2022-12-18T09:27:34;-2.23;79.17
70839;DHT22;58464;52.298;4.852;2022-12-18T09:29:59;-2.14;79.52
70839;DHT22;58464;52.298;4.852;2022-12-18T09:32:26;-2.01;79.65
70839;DHT22;58464;52.298;4.852;2022-12-18T09:34:52;-1.91;79.20
70839;DHT22;58464;52.298;4.852;2022-12-18T09:37:17;-1.91;78.92
70839;DHT22;58464;52.298;4.852;2022-12-18T09:39:43;-1.91;78.72
70839;DHT22;58464;52.298;4.852;2022-12-18T09:42:17;-2.01;78.69
70839;DHT22;58464;52.298;4.852;2022-12-18T09:44:53;-2.07;78.95
70839;DHT22;58464;52.298;4.852;2022-12-18T09:47:23;-1.97;79.26
70839;DHT22;58464;52.298;4.852;2022-12-18T09:49:56;-1.96;78.85
70839;DHT22;58464;52.298;4.852;2022-12-18T09:52:24;-1.83;79.22
70839;DHT22;58464;52.298;4.852;2022-12-18T09:54:58;-1.80;78.90
70839;DHT22;58464;52.298;4.852;2022-12-18T09:57:25;-1.79;78.72
70839;DHT22;58464;52.298;4.852;2022-12-18T10:00:19;-1.82;78.70
70839;DHT22;58464;52.298;4.852;2022-12-18T10:02:45;-1.83;78.40
70839;DHT22;58464;52.298;4.852;2022-12-18T10:11:20;-1.83;79.42
70839;DHT22;58464;52.298;4.852;2022-12-18T10:13:52;-1.80;79.49
70839;DHT22;58464;52.298;4.852;2022-12-18T10:16:59;-1.70;79.51
70839;DHT22;58464;52.298;4.852;2022-12-18T10:25:09;-1.54;79.30
70839;DHT22;58464;52.298;4.852;2022-12-18T10:27:39;-1.52;79.07
70839;DHT22;58464;52.298;4.852;2022-12-18T10:30:13;-1.52;79.06
70839;DHT22;58464;52.298;4.852;2022-12-18T10:32:40;-1.41;78.86
70839;DHT22;58464;52.298;4.852;2022-12-18T10:35:26;-1.45;78.75
70839;DHT22;58464;52.298;4.852;2022-12-18T10:38:20;-1.34;79.02
70839;DHT22;58464;52.298;4.852;2022-12-18T10:40:55;-1.38;78.60
70839;DHT22;58464;52.298;4.852;2022-12-18T10:51:30;-1.28;79.08
70839;DHT22;58464;52.298;4.852;2022-12-18T10:56:30;-1.18;78.86
70839;DHT22;58464;52.298;4.852;2022-12-18T10:59:08;-1.04;78.71
70839;DHT22;58464;52.298;4.852;2022-12-18T11:01:53;-0.97;78.25
70839;DHT22;58464;52.298;4.852;2022-12-18T11:04:22;-0.90;78.14
70839;DHT22;58464;52.298;4.852;2022-12-18T11:07:00;-0.90;77.87
70839;DHT22;58464;52.298;4.852;2022-12-18T11:09:34;-0.97;77.87
70839;DHT22;58464;52.298;4.852;2022-12-18T11:12:02;-0.90;77.98
70839;DHT22;58464;52.298;4.852;2022-12-18T11:16:56;-0.79;77.83
70839;DHT22;58464;52.298;4.852;2022-12-18T11:19:30;-0.76;77.30
70839;DHT22;58464;52.298;4.852;2022-12-18T11:21:57;-0.69;77.25
70839;DHT22;58464;52.298;4.852;2022-12-18T11:24:30;-0.55;77.44
70839;DHT22;58464;52.298;4.852;2022-12-18T11:26:59;-0.42;76.53
70839;DHT22;58464;52.298;4.852;2022-12-18T11:29:37;-0.37;76.17
70839;DHT22;58464;52.298;4.852;2022-12-18T11:32:29;-0.33;76.25
70839;DHT22;58464;52.298;4.852;2022-12-18T11:37:47;-0.28;75.97
70839;DHT22;58464;52.298;4.852;2022-12-18T11:40:18;-0.22;75.92
70839;DHT22;58464;52.298;4.852;2022-12-18T11:43:15;-0.08;76.08
70839;DHT22;58464;52.298;4.852;2022-12-18T11:46:01;-0.11;75.55
70839;DHT22;58464;52.298;4.852;2022-12-18T11:48:42;-0.15;75.24
70839;DHT22;58464;52.298;4.852;2022-12-18T11:51:25;-0.11;75.06
70839;DHT22;58464;52.298;4.852;2022-12-18T11:53:51;-0.18;75.10
70839;DHT22;58464;52.298;4.852;2022-12-18T11:56:34;-0.14;74.85
70839;DHT22;58464;52.298;4.852;2022-12-18T12:08:07;0.10;74.17
70839;DHT22;58464;52.298;4.852;2022-12-18T12:13:38;0.15;73.63
70839;DHT22;58464;52.298;4.852;2022-12-18T12:16:34;0.07;73.43
70839;DHT22;58464;52.298;4.852;2022-12-18T12:24:38;0.22;73.43
70839;DHT22;58464;52.298;4.852;2022-12-18T12:27:31;0.23;73.65
70839;DHT22;58464;52.298;4.852;2022-12-18T12:30:32;0.23;73.76
70839;DHT22;58464;52.298;4.852;2022-12-18T12:33:23;0.23;73.82
70839;DHT22;58464;52.298;4.852;2022-12-18T12:36:27;0.36;73.89
70839;DHT22;58464;52.298;4.852;2022-12-18T12:39:00;0.32;74.11
70839;DHT22;58464;52.298;4.852;2022-12-18T12:41:30;0.29;73.86
70839;DHT22;58464;52.298;4.852;2022-12-18T12:44:45;0.23;74.66
70839;DHT22;58464;52.298;4.852;2022-12-18T12:47:32;0.29;74.87
70839;DHT22;58464;52.298;4.852;2022-12-18T12:50:01;0.34;74.22
70839;DHT22;58464;52.298;4.852;2022-12-18T12:52:46;0.37;74.51
70839;DHT22;58464;52.298;4.852;2022-12-18T12:55:30;0.46;74.21
70839;DHT22;58464;52.298;4.852;2022-12-18T12:58:07;0.49;74.32
70839;DHT22;58464;52.298;4.852;2022-12-18T13:01:09;0.44;74.06
70839;DHT22;58464;52.298;4.852;2022-12-18T13:03:44;0.42;74.37
70839;DHT22;58464;52.298;4.852;2022-12-18T13:08:54;0.46;74.30
70839;DHT22;58464;52.298;4.852;2022-12-18T13:11:36;0.42;73.88
70839;DHT22;58464;52.298;4.852;2022-12-18T13:14:27;0.37;74.30
70839;DHT22;58464;52.298;4.852;2022-12-18T13:19:49;0.40;74.42
70839;DHT22;58464;52.298;4.852;2022-12-18T13:22:23;0.37;74.35
70839;DHT22;58464;52.298;4.852;2022-12-18T13:24:49;0.36;74.91
70839;DHT22;58464;52.298;4.852;2022-12-18T13:36:32;0.33;74.44
70839;DHT22;58464;52.298;4.852;2022-12-18T13:41:45;0.36;74.33
70839;DHT22;58464;52.298;4.852;2022-12-18T13:44:33;0.29;74.73
70839;DHT22;58464;52.298;4.852;2022-12-18T13:47:01;0.32;74.31
70839;DHT22;58464;52.298;4.852;2022-12-18T13:52:02;0.36;74.55
70839;DHT22;58464;52.298;4.852;2022-12-18T13:54:36;0.34;74.16
70839;DHT22;58464;52.298;4.852;2022-12-18T13:57:04;0.37;74.04
70839;DHT22;58464;52.298;4.852;2022-12-18T13:59:36;0.39;74.04
70839;DHT22;58464;52.298;4.852;2022-12-18T14:02:32;0.32;74.26
70839;DHT22;58464;52.298;4.852;2022-12-18T14:04:59;0.34;74.26
70839;DHT22;58464;52.298;4.852;2022-12-18T14:07:27;0.36;74.26
70839;DHT22;58464;52.298;4.852;2022-12-18T14:09:55;0.37;74.28
70839;DHT22;58464;52.298;4.852;2022-12-18T14:12:46;0.39;73.79
70839;DHT22;58464;52.298;4.852;2022-12-18T14:21:00;0.50;73.73
70839;DHT22;58464;52.298;4.852;2022-12-18T14:23:34;0.42;73.63
70839;DHT22;58464;52.298;4.852;2022-12-18T14:26:02;0.46;73.86
70839;DHT22;58464;52.298;4.852;2022-12-18T14:28:28;0.49;73.64
70839;DHT22;58464;52.298;4.852;2022-12-18T14:30:54;0.46;73.66
70839;DHT22;58464;52.298;4.852;2022-12-18T14:33:22;0.49;73.37
70839;DHT22;58464;52.298;4.852;2022-12-18T14:35:59;0.46;73.38
70839;DHT22;58464;52.298;4.852;2022-12-18T14:41:10;0.49;73.66
70839;DHT22;58464;52.298;4.852;2022-12-18T14:43:38;0.49;74.05
70839;DHT22;58464;52.298;4.852;2022-12-18T14:46:05;0.47;73.95
70839;DHT22;58464;52.298;4.852;2022-12-18T14:48:36;0.49;74.00
70839;DHT22;58464;52.298;4.852;2022-12-18T14:53:34;0.52;73.40
70839;DHT22;58464;52.298;4.852;2022-12-18T14:56:02;0.53;73.24
70839;DHT22;58464;52.298;4.852;2022-12-18T14:58:28;0.56;73.57
70839;DHT22;58464;52.298;4.852;2022-12-18T15:00:54;0.47;73.60
70839;DHT22;58464;52.298;4.852;2022-12-18T15:03:21;0.52;74.03
70839;DHT22;58464;52.298;4.852;2022-12-18T15:05:47;0.49;73.82
70839;DHT22;58464;52.298;4.852;2022-12-18T15:08:35;0.57;74.02
70839;DHT22;58464;52.298;4.852;2022-12-18T15:11:00;0.50;74.31
70839;DHT22;58464;52.298;4.852;2022-12-18T15:13:26;0.57;74.09
70839;DHT22;58464;52.298;4.852;2022-12-18T15:15:53;0.67;73.89
70839;DHT22;58464;52.298;4.852;2022-12-18T15:18:22;0.63;73.82
70839;DHT22;58464;52.298;4.852;2022-12-18T15:20:53;0.60;73.78
70839;DHT22;58464;52.298;4.852;2022-12-18T15:26:05;0.60;73.88
70839;DHT22;58464;52.298;4.852;2022-12-18T15:28:49;0.50;73.80
70839;DHT22;58464;52.298;4.852;2022-12-18T15:36:24;0.64;73.42
70839;DHT22;58464;52.298;4.852;2022-12-18T15:38:50;0.65;72.81
70839;DHT22;58464;52.298;4.852;2022-12-18T15:41:19;0.58;73.19
70839;DHT22;58464;52.298;4.852;2022-12-18T15:43:47;0.60;72.92
70839;DHT22;58464;52.298;4.852;2022-12-18T15:46:15;0.61;73.06
70839;DHT22;58464;52.298;4.852;2022-12-18T15:48:43;0.58;72.62
70839;DHT22;58464;52.298;4.852;2022-12-18T15:51:15;0.60;72.91
70839;DHT22;58464;52.298;4.852;2022-12-18T15:53:41;0.63;73.05
70839;DHT22;58464;52.298;4.852;2022-12-18T15:56:11;0.65;73.24
70839;DHT22;58464;52.298;4.852;2022-12-18T15:58:55;0.70;73.10
70839;DHT22;58464;52.298;4.852;2022-12-18T16:01:23;0.67;72.74
70839;DHT22;58464;52.298;4.852;2022-12-18T16:03:49;0.74;72.90
70839;DHT22;58464;52.298;4.852;2022-12-18T16:06:14;0.73;72.80
70839;DHT22;58464;52.298;4.852;2022-12-18T16:08:41;0.70;73.07
70839;DHT22;58464;52.298;4.852;2022-12-18T16:11:26;0.70;72.62
70839;DHT22;58464;52.298;4.852;2022-12-18T16:14:16;0.67;72.59
70839;DHT22;58464;52.298;4.852;2022-12-18T16:16:41;0.67;72.62
70839;DHT22;58464;52.298;4.852;2022-12-18T16:19:07;0.70;72.86
70839;DHT22;58464;52.298;4.852;2022-12-18T16:21:32;0.73;72.81
70839;DHT22;58464;52.298;4.852;2022-12-18T16:23:58;0.73;72.77
70839;DHT22;58464;52.298;4.852;2022-12-18T16:26:23;0.73;73.02
70839;DHT22;58464;52.298;4.852;2022-12-18T16:28:49;0.68;72.63
70839;DHT22;58464;52.298;4.852;2022-12-18T16:31:14;0.68;72.89
70839;DHT22;58464;52.298;4.852;2022-12-18T16:33:40;0.70;72.97
70839;DHT22;58464;52.298;4.852;2022-12-18T16:36:05;0.78;73.15
70839;DHT22;58464;52.298;4.852;2022-12-18T16:38:31;0.81;73.34
70839;DHT22;58464;52.298;4.852;2022-12-18T16:40:56;0.85;72.57
70839;DHT22;58464;52.298;4.852;2022-12-18T16:43:40;0.83;72.56
70839;DHT22;58464;52.298;4.852;2022-12-18T16:46:06;0.85;72.59
70839;DHT22;58464;52.298;4.852;2022-12-18T16:48:34;0.80;72.69
70839;DHT22;58464;52.298;4.852;2022-12-18T16:51:02;0.83;72.86
70839;DHT22;58464;52.298;4.852;2022-12-18T16:53:28;0.77;72.83
70839;DHT22;58464;52.298;4.852;2022-12-18T16:55:54;0.83;72.81
70839;DHT22;58464;52.298;4.852;2022-12-18T16:58:20;0.92;72.19
70839;DHT22;58464;52.298;4.852;2022-12-18T17:00:45;0.88;72.48
70839;DHT22;58464;52.298;4.852;2022-12-18T17:03:11;0.91;72.16
70839;DHT22;58464;52.298;4.852;2022-12-18T17:05:36;0.95;72.72
70839;DHT22;58464;52.298;4.852;2022-12-18T17:08:01;0.88;72.49
70839;DHT22;58464;52.298;4.852;2022-12-18T17:10:27;0.89;72.98
70839;DHT22;58464;52.298;4.852;2022-12-18T17:12:54;0.95;72.51
70839;DHT22;58464;52.298;4.852;2022-12-18T17:15:19;0.92;72.64
70839;DHT22;58464;52.298;4.852;2022-12-18T17:17:44;0.92;72.93
70839;DHT22;58464;52.298;4.852;2022-12-18T17:20:11;0.92;72.94
70839;DHT22;58464;52.298;4.852;2022-12-18T17:22:37;0.98;72.71
70839;DHT22;58464;52.298;4.852;2022-12-18T17:25:04;1.01;72.80
70839;DHT22;58464;52.298;4.852;2022-12-18T17:27:29;1.04;72.88
70839;DHT22;58464;52.298;4.852;2022-12-18T17:29:55;0.92;73.32
70839;DHT22;58464;52.298;4.852;2022-12-18T17:32:20;0.94;73.45
70839;DHT22;58464;52.298;4.852;2022-12-18T17:34:46;0.95;73.53
70839;DHT22;58464;52.298;4.852;2022-12-18T17:37:11;1.06;73.45
70839;DHT22;58464;52.298;4.852;2022-12-18T17:39:38;1.11;73.39
70839;DHT22;58464;52.298;4.852;2022-12-18T17:42:03;1.12;73.53
70839;DHT22;58464;52.298;4.852;2022-12-18T17:44:29;1.15;73.16